Details From KCRG - Craig Muni
To KAPF - Naples Muni
Flight Number -
Tags Generated
Created
Modified
Stats Distance 252 nm / 467 km
Max Altitude 0 ft / 0 m
Waypoints 3
Social Downloads 1
Likes 0
Share VATSIM

Download

Looking for another format? Having issues loading an existing format? Contact us
Advertisement - Login to hide

Notes

Generated

Route

KCRG HICUP KAPF

ID Type Via Altitude Latitude Longitude Leg Dist Tot Dist Heading (true) Name
O KCRG APT - 0 ft / 0 m 30.34377˚ -81.51894˚ - 0 nm - -
HICUP FIX - 0 ft / 0 m 26.41361˚ -81.77728˚ 236 nm 236 nm 183° / 183° -
O KAPF APT - 0 ft / 0 m 26.14778˚ -81.78194˚ 15 nm 252 nm 181° / 181° Naples Muni

Altitude Profile

Advertisement - Login to hide

Weather


0- 5 10 15 20 25 30 35+ Temperature / ° C

Clouds and Precipitation
Forecast for 2017-12-18 12:00 UTC. Updated 2 hours ago

Ground ~20,000 ft ~40,000 ft Winds

KCRG

Details ICAO KCRG
Name Craig Muni
Region United States
Timezone America/New_York (UTC-5.0)
Stats Elevation 41 ft / 12 m (AMSL)
Location 30.336334° -81.514457°
Runways 2
Magnetic Variation 6.554° W

METAR

KCRG 181153Z 21003KT 7SM CLR 16/14 A3020 RMK AO2 SLP225 T01560139 10178 20139 53000

Decode

TAF

TAF KCRG 181149Z 1812/1912 21004KT P6SM SCT030 BKN250 TEMPO 1812/1813 5SM BR FM181500 23006KT P6SM SCT020 BKN035 FM190100 21003KT 4SM BR BKN010 OVC020 FM190600 26003KT 1/2SM FG OVC002

Decode

Departure Runways

ID Width Length Bearing (true) Bearing (mag) Surface Threshold Offset Overrun Length
05 100 ft / 30 m 4,007 ft / 1,221 m 44.86° 51.41° Asphalt 0 ft / 0 m 75 ft / 23 m
14 100 ft / 30 m 4,001 ft / 1,220 m 135.16° 141.71° Asphalt 0 ft / 0 m 75 ft / 23 m
23 100 ft / 30 m 4,007 ft / 1,221 m 224.87° 231.42° Asphalt 0 ft / 0 m 75 ft / 23 m
32 100 ft / 30 m 4,001 ft / 1,220 m 315.16° 321.71° Asphalt 0 ft / 0 m 75 ft / 23 m

KAPF

Details ICAO KAPF (APF)
Name Naples Muni
Region United States
Timezone America/New_York (UTC-5.0)
Stats Elevation 8 ft / 2 m (AMSL)
Location 26.151612° -81.776854°
Runways 3
Magnetic Variation 5.771° W

METAR

KAPF 181153Z 08003KT 1/4SM FG VV002 18/18 A3021 RMK AO2 SLP228 T01780178 10200 20172 53004

Decode

TAF

TAF KAPF 181201Z 1812/1912 00000KT 3SM BR SCT005 TEMPO 1812/1813 1/2SM FG VV002 FM181400 VRB03KT P6SM FEW010 SCT020 FM181500 09005KT P6SM FEW020 FM181800 29010KT P6SM SKC FM190000 VRB02KT P6SM SKC

Decode

Destination Runways

ID Width Length Bearing (true) Bearing (mag) Surface Threshold Offset Overrun Length
05 150 ft / 46 m 5,296 ft / 1,614 m 44.07° 49.84° Asphalt 290 ft / 88 m 0 ft / 0 m
05R 100 ft / 30 m 1,833 ft / 559 m 44.02° 49.79° Grass 0 ft / 0 m 0 ft / 0 m
14 100 ft / 30 m 5,006 ft / 1,526 m 134.39° 140.16° Asphalt 130 ft / 40 m 0 ft / 0 m
23 150 ft / 46 m 5,296 ft / 1,614 m 224.08° 229.85° Asphalt 0 ft / 0 m 0 ft / 0 m
23L 100 ft / 30 m 1,833 ft / 559 m 224.03° 229.80° Grass 0 ft / 0 m 0 ft / 0 m
32 100 ft / 30 m 5,006 ft / 1,526 m 314.39° 320.16° Asphalt 450 ft / 137 m 0 ft / 0 m

Popular Alternatives